Terminal Aerodrome Forecast
Issued by NWS Amarillo, TX

Home | Current Version | Previous Version | Text Only | Print | Product List | Glossary On
Versions: 1 2 3 4 5 6 7 8 9 10 11 12 13 14
000
FTUS44 KAMA 281120
TAFGUY
TAF
KGUY 281120Z 2812/2912 VRB06KT P6SM SCT200
     FM282000 17012KT P6SM SCT090
     FM290200 17016KT P6SM VCTS SCT060CB BKN120 PROB30 2902/2908 2SM
      TSRA BR OVC040CB
     FM290800 13008KT P6SM SCT060 BKN110=

USA.gov is the U.S. government's official web portal to all federal, state and local government web resources and services.